createdAt,value
2017-06-01T00:01:11.788Z,77.20
2017-06-01T00:03:38.553Z,77.90
2017-06-01T00:06:05.283Z,78.80
2017-06-01T00:08:31.992Z,78.90
2017-06-01T00:10:58.742Z,77.00
2017-06-01T00:13:25.470Z,78.40
2017-06-01T00:15:53.022Z,77.30
2017-06-01T00:18:20.033Z,76.50
2017-06-01T00:20:46.013Z,76.50
2017-06-01T00:23:12.723Z,76.70
2017-06-01T00:25:39.741Z,77.60
2017-06-01T00:28:06.453Z,76.60
2017-06-01T00:30:33.543Z,78.30
2017-06-01T00:33:00.653Z,79.70
2017-06-01T00:35:27.376Z,77.90
2017-06-01T00:37:54.557Z,76.10
2017-06-01T00:40:21.268Z,76.30
2017-06-01T00:42:47.975Z,75.00
2017-06-01T00:45:14.833Z,76.60
2017-06-01T00:47:41.540Z,76.30
2017-06-01T00:50:08.258Z,77.20
2017-06-01T00:52:34.996Z,77.80
2017-06-01T00:55:01.707Z,77.10
2017-06-01T00:57:28.444Z,78.10
2017-06-01T00:59:55.164Z,79.30
2017-06-01T01:02:21.876Z,79.00
2017-06-01T01:04:48.627Z,80.10
2017-06-01T01:07:15.972Z,79.70
2017-06-01T01:09:42.740Z,79.90
2017-06-01T01:12:09.469Z,80.60
2017-06-01T01:14:36.180Z,77.40
2017-06-01T01:17:02.945Z,79.50
2017-06-01T01:19:29.766Z,78.80
2017-06-01T01:21:57.053Z,79.80
2017-06-01T01:24:23.776Z,79.60
2017-06-01T01:26:50.585Z,79.60
2017-06-01T01:29:17.354Z,79.80
2017-06-01T01:31:44.068Z,80.60
2017-06-01T01:34:10.787Z,79.20
2017-06-01T01:36:37.508Z,79.40
2017-06-01T01:39:04.217Z,80.40
2017-06-01T01:41:30.929Z,80.10
2017-06-01T01:43:57.673Z,79.10
2017-06-01T01:46:24.396Z,78.40
2017-06-01T01:48:51.148Z,79.70
2017-06-01T01:51:17.873Z,82.10
2017-06-01T01:53:45.012Z,81.40
2017-06-01T01:56:11.716Z,82.50
2017-06-01T01:58:38.463Z,82.10
2017-06-01T02:01:05.175Z,81.60
2017-06-01T02:03:31.875Z,80.50
2017-06-01T02:05:58.598Z,81.60
2017-06-01T02:08:25.297Z,82.60
2017-06-01T02:10:53.273Z,83.30
2017-06-01T02:13:20.034Z,83.80
2017-06-01T02:15:46.736Z,82.50
2017-06-01T02:18:13.440Z,83.10
2017-06-01T02:20:40.136Z,83.60
2017-06-01T02:23:06.836Z,83.10
2017-06-01T02:25:33.598Z,84.10
2017-06-01T02:28:00.292Z,83.70
2017-06-01T02:30:26.996Z,83.50
2017-06-01T02:32:54.077Z,84.70
2017-06-01T02:35:20.780Z,85.00
2017-06-01T02:37:47.481Z,81.40
2017-06-01T02:40:14.509Z,84.80
2017-06-01T02:42:40.493Z,84.60
2017-06-01T02:45:07.196Z,82.60
2017-06-01T02:47:33.911Z,82.50
2017-06-01T02:50:00.595Z,82.80
2017-06-01T02:52:27.297Z,83.30
2017-06-01T02:54:54.053Z,81.50
2017-06-01T02:57:20.849Z,80.80
2017-06-01T02:59:47.547Z,82.80
2017-06-01T03:02:14.252Z,83.80
2017-06-01T03:04:40.949Z,84.20
2017-06-01T03:07:07.670Z,84.70
2017-06-01T03:09:34.413Z,84.50
2017-06-01T03:12:01.429Z,86.40
2017-06-01T03:14:28.125Z,86.00
2017-06-01T03:16:54.835Z,86.20
2017-06-01T03:19:21.528Z,86.40
2017-06-01T03:21:48.254Z,85.90
2017-06-01T03:24:15.241Z,87.00
2017-06-01T03:26:41.933Z,86.00
2017-06-01T03:29:08.685Z,86.80
2017-06-01T03:31:35.358Z,86.90
2017-06-01T03:34:02.057Z,82.80
2017-06-01T03:36:28.757Z,85.30
2017-06-01T03:38:55.548Z,85.20
2017-06-01T03:41:22.232Z,83.40
2017-06-01T03:43:48.961Z,85.90
2017-06-01T03:46:15.693Z,84.80
2017-06-01T03:48:42.380Z,85.40
2017-06-01T03:51:09.081Z,85.40
2017-06-01T03:53:35.792Z,84.80
2017-06-01T03:56:02.480Z,84.80
2017-06-01T03:58:29.181Z,84.10
2017-06-01T04:00:55.968Z,81.60
2017-06-01T04:03:22.668Z,81.60
2017-06-01T04:05:49.383Z,79.80
2017-06-01T04:08:16.121Z,77.90
2017-06-01T04:10:42.897Z,76.70
2017-06-01T04:13:09.604Z,75.90
2017-06-01T04:15:36.339Z,76.20
2017-06-01T04:18:03.065Z,75.50
2017-06-01T04:20:29.780Z,75.20
2017-06-01T04:22:56.529Z,72.90
2017-06-01T04:25:23.231Z,71.70
2017-06-01T04:27:50.193Z,71.00
2017-06-01T04:30:16.969Z,69.80
2017-06-01T04:32:43.693Z,68.90
2017-06-01T04:35:10.399Z,68.50
2017-06-01T04:37:37.145Z,66.90
2017-06-01T04:40:03.909Z,65.70
2017-06-01T04:42:30.612Z,65.50
2017-06-01T04:44:57.361Z,63.20
2017-06-01T04:47:24.072Z,60.90
2017-06-01T04:49:50.809Z,62.00
2017-06-01T04:52:16.769Z,61.90
2017-06-01T04:54:43.489Z,59.20
2017-06-01T04:57:10.204Z,58.80
2017-06-01T04:59:36.960Z,58.70
2017-06-01T05:02:03.750Z,58.80
2017-06-01T05:04:30.881Z,57.70
2017-06-01T05:06:57.595Z,56.80
2017-06-01T05:09:24.385Z,55.70
2017-06-01T05:11:51.098Z,56.00
2017-06-01T05:14:17.816Z,55.30
2017-06-01T05:16:44.598Z,53.90
2017-06-01T05:19:11.317Z,53.20
2017-06-01T05:21:38.041Z,52.50
2017-06-01T05:24:04.783Z,51.10
2017-06-01T05:26:31.501Z,49.60
2017-06-01T05:28:58.211Z,50.00
2017-06-01T05:31:24.956Z,48.80
2017-06-01T05:33:51.678Z,48.60
2017-06-01T05:36:18.396Z,48.30
2017-06-01T05:38:45.142Z,47.80
2017-06-01T05:41:11.868Z,47.00
2017-06-01T05:43:38.576Z,46.10
2017-06-01T05:46:04.596Z,46.00
2017-06-01T05:48:31.389Z,45.60
2017-06-01T05:50:58.161Z,45.50
2017-06-01T05:53:24.913Z,45.30
2017-06-01T05:55:51.640Z,45.40
2017-06-01T05:58:18.652Z,45.10
2017-06-01T06:00:45.388Z,44.90
2017-06-01T06:03:12.088Z,44.50
2017-06-01T06:05:38.793Z,44.30
2017-06-01T06:08:05.533Z,44.30
2017-06-01T06:10:32.244Z,43.50
2017-06-01T06:12:58.956Z,43.90
2017-06-01T06:15:26.659Z,43.70
2017-06-01T06:17:53.430Z,43.60
2017-06-01T06:20:20.413Z,42.80
2017-06-01T06:22:47.116Z,42.00
2017-06-01T06:25:13.839Z,42.00
2017-06-01T06:27:40.570Z,42.00
2017-06-01T06:30:07.276Z,42.10
2017-06-01T06:32:33.976Z,41.80
2017-06-01T06:35:00.692Z,40.50
2017-06-01T06:37:27.387Z,41.10
2017-06-01T06:39:54.108Z,40.70
2017-06-01T06:42:20.816Z,40.80
2017-06-01T06:44:47.520Z,41.40
2017-06-01T06:47:14.281Z,42.10
2017-06-01T06:49:41.231Z,41.60
2017-06-01T06:52:07.932Z,40.90
2017-06-01T06:54:34.697Z,40.70
2017-06-01T06:57:01.415Z,39.50
2017-06-01T06:59:28.131Z,39.50
2017-06-01T07:01:54.881Z,40.10
2017-06-01T07:04:21.612Z,39.90
2017-06-01T07:06:48.337Z,39.30
2017-06-01T07:09:15.065Z,38.20
2017-06-01T07:11:41.776Z,38.00
2017-06-01T07:14:08.889Z,38.10
2017-06-01T07:16:35.825Z,38.20
2017-06-01T07:19:02.563Z,37.40
2017-06-01T07:21:29.292Z,37.90
2017-06-01T07:23:56.014Z,38.90
2017-06-01T07:26:22.784Z,38.70
2017-06-01T07:28:49.784Z,38.10
2017-06-01T07:31:16.497Z,36.10
2017-06-01T07:33:43.220Z,37.00
2017-06-01T07:36:09.924Z,37.30
2017-06-01T07:38:36.645Z,37.10
2017-06-01T07:41:03.372Z,37.00
2017-06-01T07:43:30.083Z,36.90
2017-06-01T07:45:56.793Z,36.40
2017-06-01T07:48:23.525Z,35.40
2017-06-01T07:50:50.242Z,35.10
2017-06-01T07:53:16.944Z,34.00
2017-06-01T07:55:44.029Z,34.10
2017-06-01T07:58:10.742Z,33.90
2017-06-01T08:00:37.526Z,33.70
2017-06-01T08:03:04.252Z,33.00
2017-06-01T08:05:30.985Z,33.40
2017-06-01T08:07:57.724Z,34.20
2017-06-01T08:10:24.440Z,33.70
2017-06-01T08:12:51.152Z,35.00
2017-06-01T08:15:17.876Z,34.50
2017-06-01T08:17:44.648Z,33.60
2017-06-01T08:20:11.720Z,33.30
2017-06-01T08:22:38.432Z,32.90
2017-06-01T08:25:05.167Z,31.80
2017-06-01T08:27:31.884Z,31.20
2017-06-01T08:29:58.602Z,32.10
2017-06-01T08:32:25.353Z,31.00
2017-06-01T08:34:52.056Z,30.40
2017-06-01T08:37:18.773Z,30.70
2017-06-01T08:39:45.513Z,30.80
2017-06-01T08:42:12.249Z,30.80
2017-06-01T08:44:39.030Z,30.00
2017-06-01T08:47:05.740Z,30.00
2017-06-01T08:49:32.456Z,28.90
2017-06-01T08:51:59.253Z,28.30
2017-06-01T08:54:25.955Z,28.20
2017-06-01T08:56:52.670Z,28.90
2017-06-01T08:59:19.428Z,29.20
2017-06-01T09:01:46.154Z,30.60
2017-06-01T09:04:12.904Z,31.10
2017-06-01T09:06:39.644Z,30.30
2017-06-01T09:09:06.343Z,29.40
2017-06-01T09:11:33.084Z,28.30
2017-06-01T09:13:59.815Z,30.50
2017-06-01T09:16:26.533Z,30.70
2017-06-01T09:18:53.254Z,30.00
2017-06-01T09:21:19.999Z,30.20
2017-06-01T09:23:46.714Z,29.00
2017-06-01T09:26:13.434Z,30.00
2017-06-01T09:28:40.162Z,29.80
2017-06-01T09:31:06.139Z,29.80
2017-06-01T09:33:33.187Z,29.90
2017-06-01T09:35:59.897Z,29.90
2017-06-01T09:38:26.613Z,29.00
2017-06-01T09:40:53.406Z,28.50
2017-06-01T09:43:20.124Z,29.30
2017-06-01T09:45:46.868Z,29.70
2017-06-01T09:48:13.592Z,30.00
2017-06-01T09:50:40.339Z,29.40
2017-06-01T09:53:07.060Z,29.10
2017-06-01T09:55:33.777Z,28.80
2017-06-01T09:58:00.526Z,28.80
2017-06-01T10:00:27.255Z,29.10
2017-06-01T10:02:54.011Z,29.20
2017-06-01T10:05:20.787Z,29.70
2017-06-01T10:07:47.765Z,30.80
2017-06-01T10:10:14.485Z,31.30
2017-06-01T10:12:41.233Z,31.60
2017-06-01T10:15:08.029Z,31.90
2017-06-01T10:17:34.752Z,31.30
2017-06-01T10:20:01.502Z,30.70
2017-06-01T10:22:28.221Z,32.10
2017-06-01T10:24:54.928Z,30.90
2017-06-01T10:27:21.684Z,32.60
2017-06-01T10:29:48.447Z,30.10
2017-06-01T10:32:15.164Z,31.50
2017-06-01T10:34:41.896Z,31.20
2017-06-01T10:37:08.613Z,29.80
2017-06-01T10:39:35.364Z,30.30
2017-06-01T10:42:02.291Z,30.00
2017-06-01T10:44:29.005Z,30.00
2017-06-01T10:46:55.744Z,30.10
2017-06-01T10:49:22.479Z,30.60
2017-06-01T10:51:50.531Z,31.20
2017-06-01T10:54:17.577Z,31.70
2017-06-01T10:56:44.305Z,32.90
2017-06-01T10:59:11.020Z,29.00
2017-06-01T11:01:37.798Z,29.40
2017-06-01T11:04:04.516Z,30.60
2017-06-01T11:06:31.285Z,31.00
2017-06-01T11:08:58.029Z,30.30
2017-06-01T11:11:24.794Z,29.10
2017-06-01T11:13:51.508Z,28.90
2017-06-01T11:16:18.310Z,28.90
2017-06-01T11:18:45.033Z,28.90
2017-06-01T11:21:11.788Z,28.60
2017-06-01T11:23:38.508Z,28.20
2017-06-01T11:26:05.229Z,27.40
2017-06-01T11:28:31.957Z,28.00
2017-06-01T11:30:58.725Z,28.50
2017-06-01T11:33:25.479Z,28.20
2017-06-01T11:35:52.206Z,28.30
2017-06-01T11:38:18.929Z,28.00
2017-06-01T11:40:45.684Z,26.70
2017-06-01T11:43:12.436Z,26.30
2017-06-01T11:45:39.160Z,24.10
2017-06-01T11:48:05.904Z,25.90
2017-06-01T11:50:32.626Z,26.00
2017-06-01T11:52:59.364Z,27.20
2017-06-01T11:55:27.059Z,26.90
2017-06-01T11:57:53.776Z,25.00
2017-06-01T12:00:20.539Z,26.60
2017-06-01T12:02:46.541Z,26.60
2017-06-01T12:05:13.252Z,26.50
2017-06-01T12:07:39.969Z,25.60
2017-06-01T12:10:06.690Z,26.20
2017-06-01T12:12:33.409Z,26.50
2017-06-01T12:15:00.186Z,26.40
2017-06-01T12:17:27.321Z,26.30
2017-06-01T12:19:54.370Z,26.20
2017-06-01T12:22:21.108Z,25.50
2017-06-01T12:24:47.821Z,24.50
2017-06-01T12:27:14.968Z,25.80
2017-06-01T12:29:41.945Z,26.70
2017-06-01T12:32:08.661Z,26.50
2017-06-01T12:34:35.401Z,25.80
2017-06-01T12:37:02.111Z,26.00
2017-06-01T12:39:28.829Z,24.90
2017-06-01T12:41:56.025Z,25.40
2017-06-01T12:44:22.750Z,26.60
2017-06-01T12:46:49.464Z,25.70
2017-06-01T12:49:16.200Z,25.90
2017-06-01T12:51:42.948Z,26.10
2017-06-01T12:54:09.669Z,27.60
2017-06-01T12:56:36.439Z,25.70
2017-06-01T12:59:03.221Z,26.30
2017-06-01T13:01:29.945Z,25.70
2017-06-01T13:03:56.719Z,26.30
2017-06-01T13:06:23.432Z,26.00
2017-06-01T13:08:50.172Z,26.10
2017-06-01T13:11:16.905Z,26.70
2017-06-01T13:13:43.605Z,27.20
2017-06-01T13:16:10.339Z,26.90
2017-06-01T13:18:37.052Z,26.80
2017-06-01T13:21:03.851Z,26.10
2017-06-01T13:23:30.567Z,26.40
2017-06-01T13:25:57.267Z,25.50
2017-06-01T13:28:24.060Z,25.80
2017-06-01T13:30:50.769Z,24.80
2017-06-01T13:33:17.521Z,27.10
2017-06-01T13:35:44.256Z,26.70
2017-06-01T13:38:10.959Z,26.10
2017-06-01T13:40:37.688Z,26.60
2017-06-01T13:43:05.207Z,27.10
2017-06-01T13:45:31.915Z,27.70
2017-06-01T13:47:58.838Z,27.70
2017-06-01T13:50:25.905Z,28.10
2017-06-01T13:52:52.617Z,28.60
2017-06-01T13:55:19.361Z,27.60
2017-06-01T13:57:46.070Z,26.90
2017-06-01T14:00:12.792Z,26.90
2017-06-01T14:02:39.518Z,27.70
2017-06-01T14:05:06.236Z,26.00
2017-06-01T14:07:32.972Z,28.00
2017-06-01T14:09:59.703Z,29.20
2017-06-01T14:12:26.409Z,28.20
2017-06-01T14:14:53.128Z,27.50
2017-06-01T14:17:19.857Z,26.90
2017-06-01T14:19:46.605Z,26.90
2017-06-01T14:22:13.310Z,27.20
2017-06-01T14:24:42.571Z,27.90
2017-06-01T14:27:09.281Z,28.60
2017-06-01T14:29:35.992Z,28.60
2017-06-01T14:32:02.716Z,27.90
2017-06-01T14:34:29.434Z,28.00
2017-06-01T14:36:56.139Z,27.30
2017-06-01T14:39:22.851Z,28.50
2017-06-01T14:41:49.564Z,29.20
2017-06-01T14:44:15.557Z,29.20
2017-06-01T14:46:42.276Z,28.50
2017-06-01T14:49:09.000Z,29.40
2017-06-01T14:51:35.745Z,28.70
2017-06-01T14:54:02.756Z,28.70
2017-06-01T14:56:29.497Z,29.40
2017-06-01T14:58:56.456Z,29.40
2017-06-01T15:01:23.155Z,30.10
2017-06-01T15:03:49.855Z,29.30
2017-06-01T15:06:16.580Z,29.50
2017-06-01T15:08:43.277Z,29.60
2017-06-01T15:11:10.028Z,30.00
2017-06-01T15:13:37.187Z,30.10
2017-06-01T15:16:03.891Z,29.80
2017-06-01T15:18:30.591Z,29.60
2017-06-01T15:20:57.342Z,29.90
2017-06-01T15:23:24.056Z,29.80
2017-06-01T15:25:50.776Z,28.90
2017-06-01T15:28:17.477Z,30.20
2017-06-01T15:30:44.176Z,29.50
2017-06-01T15:33:10.904Z,29.70
2017-06-01T15:35:37.653Z,29.80
2017-06-01T15:38:05.362Z,29.30
2017-06-01T15:40:32.093Z,28.90
2017-06-01T15:42:58.788Z,29.70
2017-06-01T15:45:25.502Z,30.00
2017-06-01T15:47:52.252Z,30.90
2017-06-01T15:50:18.959Z,29.40
2017-06-01T15:52:45.702Z,30.50
2017-06-01T15:55:12.725Z,31.00
2017-06-01T15:57:39.425Z,30.00
2017-06-01T16:00:06.160Z,29.50
2017-06-01T16:02:32.883Z,29.70
2017-06-01T16:04:59.593Z,30.30
2017-06-01T16:07:26.742Z,30.70
2017-06-01T16:09:53.453Z,31.40
2017-06-01T16:12:20.156Z,31.30
2017-06-01T16:14:46.896Z,30.50
2017-06-01T16:17:13.610Z,31.20
2017-06-01T16:19:40.356Z,30.90
2017-06-01T16:22:07.091Z,30.00
2017-06-01T16:24:34.084Z,30.80
2017-06-01T16:27:00.800Z,30.10
2017-06-01T16:29:26.813Z,30.00
2017-06-01T16:31:53.533Z,31.20
2017-06-01T16:34:20.933Z,31.30
2017-06-01T16:36:47.669Z,30.90
2017-06-01T16:39:14.375Z,31.10
2017-06-01T16:41:41.105Z,30.30
2017-06-01T16:44:07.884Z,31.10
2017-06-01T16:46:34.583Z,31.10
2017-06-01T16:49:01.365Z,31.30
2017-06-01T16:51:28.182Z,31.30
2017-06-01T16:53:54.917Z,32.30
2017-06-01T16:56:21.875Z,32.50
2017-06-01T16:58:48.595Z,32.70
2017-06-01T17:01:15.656Z,32.60
2017-06-01T17:03:42.388Z,31.90
2017-06-01T17:06:09.101Z,32.60
2017-06-01T17:08:35.808Z,33.10
2017-06-01T17:11:02.560Z,33.20
2017-06-01T17:13:29.284Z,33.10
2017-06-01T17:15:55.999Z,32.50
2017-06-01T17:18:22.720Z,32.30
2017-06-01T17:20:49.445Z,33.00
2017-06-01T17:23:16.149Z,33.60
2017-06-01T17:25:42.888Z,33.70
2017-06-01T17:28:09.597Z,33.30
2017-06-01T17:30:36.489Z,32.30
2017-06-01T17:33:03.197Z,33.20
2017-06-01T17:35:29.925Z,32.30
2017-06-01T17:37:56.676Z,32.20
2017-06-01T17:40:23.483Z,32.30
2017-06-01T17:42:50.415Z,33.10
2017-06-01T17:45:17.172Z,33.40
2017-06-01T17:47:43.905Z,34.80
2017-06-01T17:50:10.616Z,33.50
2017-06-01T17:52:37.346Z,34.50
2017-06-01T17:55:04.060Z,35.60
2017-06-01T17:57:30.784Z,34.90
2017-06-01T17:59:57.541Z,34.70
2017-06-01T18:02:24.244Z,34.90
2017-06-01T18:04:50.945Z,34.80
2017-06-01T18:07:18.077Z,34.40
2017-06-01T18:09:44.780Z,34.50
2017-06-01T18:12:11.522Z,35.00
2017-06-01T18:14:38.270Z,33.30
2017-06-01T18:17:05.120Z,35.00
2017-06-01T18:19:31.845Z,34.80
2017-06-01T18:21:58.573Z,35.10
2017-06-01T18:24:25.484Z,35.10
2017-06-01T18:26:52.230Z,35.40
2017-06-01T18:29:18.959Z,35.80
2017-06-01T18:31:45.689Z,36.50
2017-06-01T18:34:13.029Z,38.90
2017-06-01T18:36:39.728Z,39.00
2017-06-01T18:39:06.440Z,39.40
2017-06-01T18:41:33.141Z,39.60
2017-06-01T18:43:59.861Z,40.20
2017-06-01T18:46:26.564Z,39.70
2017-06-01T18:48:53.612Z,40.80
2017-06-01T18:51:20.336Z,41.10
2017-06-01T18:53:47.097Z,40.90
2017-06-01T18:56:13.840Z,40.90
2017-06-01T18:58:40.540Z,40.00
2017-06-01T19:01:07.309Z,41.20
2017-06-01T19:03:34.024Z,40.00
2017-06-01T19:06:00.748Z,39.30
2017-06-01T19:08:27.588Z,40.20
2017-06-01T19:10:54.321Z,41.70
2017-06-01T19:13:21.033Z,39.90
2017-06-01T19:15:47.791Z,42.00
2017-06-01T19:18:14.596Z,41.00
2017-06-01T19:20:41.360Z,43.10
2017-06-01T19:23:08.100Z,44.10
2017-06-01T19:25:34.870Z,43.30
2017-06-01T19:28:01.588Z,45.80
2017-06-01T19:30:29.353Z,45.60
2017-06-01T19:32:56.115Z,44.90
2017-06-01T19:35:22.836Z,43.50
2017-06-01T19:37:51.396Z,42.90
2017-06-01T19:40:18.184Z,42.70
2017-06-01T19:42:44.960Z,40.90
2017-06-01T19:45:11.688Z,42.20
2017-06-01T19:47:38.423Z,41.70
2017-06-01T19:50:05.184Z,42.80
2017-06-01T19:52:31.883Z,41.60
2017-06-01T19:54:58.631Z,41.50
2017-06-01T19:57:25.344Z,41.80
2017-06-01T19:59:52.049Z,42.00
2017-06-01T20:02:18.816Z,43.40
2017-06-01T20:04:45.559Z,44.10
2017-06-01T20:07:12.341Z,43.10
2017-06-01T20:09:39.053Z,43.80
2017-06-01T20:12:05.756Z,47.00
2017-06-01T20:14:32.500Z,47.00
2017-06-01T20:16:59.781Z,45.90
2017-06-01T20:19:26.548Z,44.90
2017-06-01T20:21:53.244Z,45.50
2017-06-01T20:24:19.959Z,44.60
2017-06-01T20:26:46.673Z,46.60
2017-06-01T20:29:13.476Z,50.80
2017-06-01T20:31:40.193Z,49.70
2017-06-01T20:34:06.892Z,50.70
2017-06-01T20:36:33.620Z,52.90
2017-06-01T20:39:00.342Z,53.60
2017-06-01T20:41:27.057Z,52.20
2017-06-01T20:43:53.773Z,52.20
2017-06-01T20:46:20.477Z,51.40
2017-06-01T20:48:48.056Z,53.20
2017-06-01T20:51:15.617Z,54.30
2017-06-01T20:53:42.355Z,54.60
2017-06-01T20:56:09.084Z,54.50
2017-06-01T20:58:35.800Z,54.60
2017-06-01T21:01:02.615Z,55.70
2017-06-01T21:03:29.361Z,54.80
2017-06-01T21:05:56.076Z,56.70
2017-06-01T21:08:22.812Z,57.00
2017-06-01T21:10:49.921Z,53.90
2017-06-01T21:13:16.640Z,52.20
2017-06-01T21:15:43.357Z,53.10
2017-06-01T21:18:10.089Z,53.00
2017-06-01T21:20:36.800Z,52.20
2017-06-01T21:23:03.513Z,52.80
2017-06-01T21:25:30.293Z,54.00
2017-06-01T21:27:57.011Z,53.70
2017-06-01T21:30:23.753Z,53.70
2017-06-01T21:32:50.512Z,54.60
2017-06-01T21:35:17.221Z,54.60
2017-06-01T21:37:44.756Z,53.20
2017-06-01T21:40:12.506Z,54.40
2017-06-01T21:42:39.244Z,54.70
2017-06-01T21:45:05.961Z,56.10
2017-06-01T21:47:32.665Z,55.70
2017-06-01T21:49:59.644Z,58.10
2017-06-01T21:52:26.365Z,58.70
2017-06-01T21:54:53.093Z,57.30
2017-06-01T21:57:19.810Z,55.10
2017-06-01T21:59:46.918Z,54.30
2017-06-01T22:02:13.645Z,54.60
2017-06-01T22:04:40.420Z,54.80
2017-06-01T22:07:07.131Z,54.70
2017-06-01T22:09:33.856Z,54.10
2017-06-01T22:12:00.571Z,54.70
2017-06-01T22:14:27.324Z,55.50
2017-06-01T22:16:54.067Z,53.50
2017-06-01T22:19:20.775Z,54.30
2017-06-01T22:21:47.492Z,54.40
2017-06-01T22:24:14.244Z,55.50
2017-06-01T22:26:40.974Z,54.10
2017-06-01T22:29:07.704Z,52.70
2017-06-01T22:31:34.444Z,51.80
2017-06-01T22:34:01.154Z,53.00
2017-06-01T22:36:27.871Z,52.40
2017-06-01T22:38:54.596Z,53.50
2017-06-01T22:41:21.307Z,53.30
2017-06-01T22:43:48.037Z,54.90
2017-06-01T22:46:14.752Z,54.70
2017-06-01T22:48:41.465Z,54.20
2017-06-01T22:51:08.189Z,55.00
2017-06-01T22:53:34.914Z,56.30
2017-06-01T22:56:01.640Z,55.90
2017-06-01T22:58:28.360Z,54.50
2017-06-01T23:00:55.094Z,54.00
2017-06-01T23:03:23.596Z,54.70
2017-06-01T23:05:50.308Z,57.00
2017-06-01T23:08:17.033Z,57.20
2017-06-01T23:10:44.056Z,57.80
2017-06-01T23:13:10.827Z,58.00
2017-06-01T23:15:37.533Z,58.50
2017-06-01T23:18:04.237Z,59.10
2017-06-01T23:20:30.961Z,59.50
2017-06-01T23:22:57.677Z,59.50
2017-06-01T23:25:24.418Z,59.20
2017-06-01T23:27:51.153Z,59.50
2017-06-01T23:30:18.667Z,59.90
2017-06-01T23:32:45.404Z,60.60
2017-06-01T23:35:12.114Z,61.50
2017-06-01T23:37:38.824Z,62.20
2017-06-01T23:40:05.524Z,60.10
2017-06-01T23:42:32.249Z,62.20
2017-06-01T23:44:58.987Z,62.80
2017-06-01T23:47:25.691Z,62.40
2017-06-01T23:49:52.414Z,60.60
2017-06-01T23:52:19.154Z,64.30
2017-06-01T23:54:45.877Z,63.00
2017-06-01T23:57:12.585Z,62.70
2017-06-01T23:59:39.285Z,61.30
